createdAt,value
2022-11-12T00:04:50.486Z,94
2022-11-12T00:09:55.039Z,93.8
2022-11-12T00:14:59.688Z,94.2
2022-11-12T00:20:03.131Z,94.8
2022-11-12T00:25:07.651Z,95.4
2022-11-12T00:30:12.318Z,95
2022-11-12T00:35:15.741Z,95
2022-11-12T00:40:20.538Z,94.7
2022-11-12T00:45:24.903Z,94.7
2022-11-12T00:50:28.387Z,94.5
2022-11-12T00:55:32.906Z,94.8
2022-11-12T01:00:37.647Z,94.7
2022-11-12T01:06:57.193Z,94.9
2022-11-12T01:12:01.644Z,95.1
2022-11-12T01:17:06.276Z,94.9
2022-11-12T01:22:10.691Z,94.8
2022-11-12T01:27:14.267Z,95.2
2022-11-12T01:32:18.902Z,95.5
2022-11-12T01:37:23.327Z,95.9
2022-11-12T01:42:26.882Z,95.9
2022-11-12T01:47:31.526Z,96
2022-11-12T01:52:35.941Z,96
2022-11-12T01:57:39.480Z,95.6
2022-11-12T02:02:44.117Z,95.4
2022-11-12T02:07:48.578Z,95.5
2022-11-12T02:12:52.137Z,95.4
2022-11-12T02:17:56.748Z,95.7
2022-11-12T02:23:01.170Z,96
2022-11-12T02:28:05.709Z,95.2
2022-11-12T02:33:09.403Z,94.5
2022-11-12T02:38:13.769Z,94.8
2022-11-12T02:43:18.356Z,94.4
2022-11-12T02:48:22.028Z,94.2
2022-11-12T02:53:26.429Z,94.2
2022-11-12T02:58:30.951Z,94.4
2022-11-12T03:03:34.611Z,94.3
2022-11-12T03:08:39.017Z,94.5
2022-11-12T03:13:43.557Z,95
2022-11-12T03:18:47.247Z,95.6
2022-11-12T03:23:51.643Z,95.6
2022-11-12T03:28:56.207Z,95.3
2022-11-12T03:34:00.848Z,95.5
2022-11-12T03:39:04.295Z,95.4
2022-11-12T03:44:07.853Z,95.6
2022-11-12T03:49:12.516Z,95.8
2022-11-12T03:54:16.906Z,96.2
2022-11-12T03:59:20.449Z,96.7
2022-11-12T04:04:25.101Z,97
2022-11-12T04:09:29.504Z,96.9
2022-11-12T04:14:34.057Z,96.6
2022-11-12T04:19:37.712Z,96.5
2022-11-12T04:24:42.168Z,96.2
2022-11-12T04:29:46.931Z,96
2022-11-12T04:34:50.461Z,96.4
2022-11-12T04:39:54.761Z,96.8
2022-11-12T04:44:59.271Z,96.9
2022-11-12T04:50:02.966Z,97.1
2022-11-12T04:55:07.372Z,96.8
2022-11-12T05:00:11.898Z,96.7
2022-11-12T05:05:15.583Z,96.8
2022-11-12T05:10:20.010Z,97.1
2022-11-12T05:15:24.515Z,97.3
2022-11-12T05:20:29.195Z,97.5
2022-11-12T05:25:32.651Z,97.5
2022-11-12T05:30:37.252Z,98
2022-11-12T05:35:41.828Z,98.4
2022-11-12T05:40:46.327Z,98.5
2022-11-12T05:45:50.859Z,98.3
2022-11-12T05:51:12.640Z,97.8
2022-11-12T05:55:58.970Z,97
2022-11-12T06:01:03.543Z,96.9
2022-11-12T06:06:08.127Z,96.5
2022-11-12T06:11:11.589Z,96.6
2022-11-12T06:16:16.133Z,97
2022-11-12T06:21:20.759Z,97
2022-11-12T06:26:25.189Z,97.1
2022-11-12T06:31:28.723Z,96.5
2022-11-12T06:36:33.403Z,96.1
2022-11-12T06:41:37.855Z,96.3
2022-11-12T06:46:41.335Z,96.3
2022-11-12T06:51:46.006Z,95.3
2022-11-12T06:56:50.406Z,95.2
2022-11-12T07:01:54.064Z,95.1
2022-11-12T07:06:58.653Z,95.1
2022-11-12T07:12:03.050Z,95
2022-11-12T07:17:06.641Z,94.5
2022-11-12T07:22:11.238Z,94.7
2022-11-12T07:27:15.644Z,94.7
2022-11-12T07:32:20.210Z,94.9
2022-11-12T07:37:23.890Z,95.1
2022-11-12T07:42:28.269Z,94.3
2022-11-12T07:47:32.829Z,93.4
2022-11-12T07:52:36.690Z,93.7
2022-11-12T07:57:39.892Z,93.4
2022-11-12T08:02:44.463Z,93.1
2022-11-12T08:07:49.236Z,92.5
2022-11-12T08:12:53.555Z,91.5
2022-11-12T08:17:57.081Z,90.7
2022-11-12T08:23:01.696Z,89.9
2022-11-12T08:28:06.121Z,90
2022-11-12T08:33:09.677Z,90.2
2022-11-12T08:38:14.366Z,91.3
2022-11-12T08:43:18.757Z,91
2022-11-12T08:48:22.317Z,91
2022-11-12T08:53:26.952Z,90.3
2022-11-12T08:58:31.447Z,89.3
2022-11-12T09:03:34.942Z,89.3
2022-11-12T09:08:39.598Z,89.6
2022-11-12T09:13:44.094Z,89.5
2022-11-12T09:18:48.519Z,88.3
2022-11-12T09:23:52.214Z,88.2
2022-11-12T09:28:56.590Z,87.3
2022-11-12T09:34:01.121Z,87.8
2022-11-12T09:39:04.828Z,85.6
2022-11-12T09:44:09.213Z,85.6
2022-11-12T09:49:13.737Z,86.1
2022-11-12T09:54:17.427Z,86.3
2022-11-12T09:59:21.860Z,86
2022-11-12T10:04:26.352Z,85.6
2022-11-12T10:09:30.026Z,85.4
2022-11-12T10:14:34.455Z,84.8
2022-11-12T10:19:38.999Z,84.1
2022-11-12T10:24:43.655Z,84
2022-11-12T10:29:47.091Z,83.5
2022-11-12T10:34:51.638Z,83.9
2022-11-12T10:39:56.251Z,84.3
2022-11-12T10:44:59.700Z,84.6
2022-11-12T10:50:04.247Z,83.9
2022-11-12T10:55:08.892Z,84.7
2022-11-12T11:00:12.326Z,84.4
2022-11-12T11:05:16.857Z,84.3
2022-11-12T11:10:21.510Z,83
2022-11-12T11:15:24.947Z,83.4
2022-11-12T11:20:29.491Z,82.2
2022-11-12T11:25:34.128Z,82.6
2022-11-12T11:30:38.575Z,81.8
2022-11-12T11:35:42.102Z,81.1
2022-11-12T11:40:46.764Z,80.8
2022-11-12T11:45:51.163Z,79.9
2022-11-12T11:50:54.727Z,79.3
2022-11-12T11:55:59.405Z,80.5
2022-11-12T12:01:03.802Z,79.4
2022-11-12T12:06:07.339Z,79
2022-11-12T12:11:12.031Z,79.1
2022-11-12T12:16:15.425Z,77.9
2022-11-12T12:21:19.946Z,79.6
2022-11-12T12:26:24.612Z,78.8
2022-11-12T12:31:28.059Z,78.4
2022-11-12T12:36:32.595Z,78.8
2022-11-12T12:41:37.267Z,78.9
2022-11-12T12:46:40.668Z,78.6
2022-11-12T12:51:45.178Z,78.7
2022-11-12T12:56:49.833Z,78.5
2022-11-12T13:01:53.259Z,78.1
2022-11-12T13:06:57.899Z,77
2022-11-12T13:12:02.473Z,76.8
2022-11-12T13:17:06.859Z,75.8
2022-11-12T13:22:10.420Z,75.9
2022-11-12T13:27:15.078Z,75.6
2022-11-12T13:32:19.507Z,75.3
2022-11-12T13:37:23.061Z,75.1
2022-11-12T13:42:27.724Z,73.5
2022-11-12T13:47:32.201Z,72.4
2022-11-12T13:52:35.654Z,73.2
2022-11-12T13:57:40.355Z,72.4
2022-11-12T14:02:44.730Z,73.2
2022-11-12T14:07:48.261Z,73.8
2022-11-12T14:12:52.950Z,73.9
2022-11-12T14:17:57.357Z,74.2
2022-11-12T14:23:01.897Z,74.5
2022-11-12T14:28:05.547Z,74.2
2022-11-12T14:33:10.004Z,74
2022-11-12T14:38:14.525Z,74
2022-11-12T14:43:19.711Z,74
2022-11-12T14:48:22.580Z,74.8
2022-11-12T14:53:27.528Z,75.4
2022-11-12T14:58:30.780Z,75.7
2022-11-12T15:03:35.216Z,75.6
2022-11-12T15:08:39.739Z,75.6
2022-11-12T15:13:43.399Z,75.6
2022-11-12T15:18:47.801Z,76
2022-11-12T15:23:52.361Z,76
2022-11-12T15:28:57.032Z,76.3
2022-11-12T15:34:00.463Z,76.8
2022-11-12T15:39:04.960Z,77.1
2022-11-12T15:44:09.629Z,77
2022-11-12T15:49:13.044Z,76.7
2022-11-12T15:54:17.600Z,76.7
2022-11-12T15:59:22.248Z,76.6
2022-11-12T16:04:25.689Z,75.6
2022-11-12T16:09:30.232Z,75.7
2022-11-12T16:14:34.840Z,75.4
2022-11-12T16:19:38.292Z,75.1
2022-11-12T16:24:42.838Z,75.5
2022-11-12T16:29:46.513Z,75.8
2022-11-12T16:34:50.928Z,75.6
2022-11-12T16:39:55.427Z,75.6
2022-11-12T16:44:59.108Z,76.1
2022-11-12T16:50:03.597Z,76.8
2022-11-12T16:55:08.089Z,77.4
2022-11-12T17:00:11.773Z,77.3
2022-11-12T17:05:16.154Z,76.8
2022-11-12T17:10:20.672Z,76.4
2022-11-12T17:15:25.336Z,76.1
2022-11-12T17:20:28.750Z,76.4
2022-11-12T17:25:33.339Z,76.6
2022-11-12T17:30:37.961Z,76.8
2022-11-12T17:35:41.365Z,76.8
2022-11-12T17:40:45.908Z,77.2
2022-11-12T17:45:50.583Z,77.8
2022-11-12T17:50:54.013Z,77.9
2022-11-12T17:55:58.557Z,78.1
2022-11-12T18:01:03.216Z,78
2022-11-12T18:06:06.631Z,78.2
2022-11-12T18:11:11.157Z,78.4
2022-11-12T18:16:15.830Z,78.3
2022-11-12T18:21:20.220Z,78
2022-11-12T18:26:23.820Z,78
2022-11-12T18:31:28.421Z,78.9
2022-11-12T18:36:32.858Z,78.9
2022-11-12T18:41:36.429Z,78.7
2022-11-12T18:46:41.051Z,78.9
2022-11-12T18:51:45.470Z,78.8
2022-11-12T18:56:49.033Z,78.8
2022-11-12T19:01:53.681Z,80.5
2022-11-12T19:06:58.145Z,81.3
2022-11-12T19:12:01.618Z,81.9
2022-11-12T19:17:06.301Z,82.7
2022-11-12T19:22:10.685Z,84
2022-11-12T19:27:15.236Z,84.8
2022-11-12T19:32:18.944Z,86.1
2022-11-12T19:37:38.561Z,86.2
2022-11-12T19:42:27.846Z,87.4
2022-11-12T19:47:31.532Z,86.2
2022-11-12T19:52:35.932Z,85
2022-11-12T19:57:40.438Z,85
2022-11-12T20:02:44.143Z,84.3
2022-11-12T20:07:48.564Z,84.5
2022-11-12T20:12:53.058Z,84.7
2022-11-12T20:17:56.763Z,85.1
2022-11-12T20:23:01.151Z,86.1
2022-11-12T20:28:05.681Z,87.2
2022-11-12T20:33:10.352Z,88.1
2022-11-12T20:38:13.788Z,88.7
2022-11-12T20:43:17.348Z,88.6
2022-11-12T20:48:21.982Z,88.9
2022-11-12T20:53:26.391Z,89.5
2022-11-12T20:58:30.280Z,89.9
2022-11-12T21:03:34.611Z,89.8
2022-11-12T21:08:39.022Z,89.4
2022-11-12T21:13:43.583Z,90.6
2022-11-12T21:18:47.201Z,91.5
2022-11-12T21:23:51.658Z,92.3
2022-11-12T21:28:56.229Z,92.8
2022-11-12T21:33:59.853Z,93.1
2022-11-12T21:39:04.261Z,93.5
2022-11-12T21:44:08.817Z,93.5
2022-11-12T21:49:12.492Z,93.2
2022-11-12T21:54:16.906Z,93.4
2022-11-12T21:59:21.389Z,93.8
2022-11-12T22:04:25.090Z,94
2022-11-12T22:09:29.502Z,94.2
2022-11-12T22:14:34.015Z,93.1
2022-11-12T22:19:38.713Z,91.5
2022-11-12T22:24:42.113Z,90.8
2022-11-12T22:29:46.682Z,92
2022-11-12T22:34:51.291Z,92.5
2022-11-12T22:39:55.865Z,92.5
2022-11-12T22:45:00.342Z,92.8
2022-11-12T22:50:05.032Z,92.6
2022-11-12T22:55:08.680Z,92.8
2022-11-12T23:00:13.222Z,92.4
2022-11-12T23:05:17.894Z,92
2022-11-12T23:10:21.282Z,92.4
2022-11-12T23:15:25.950Z,92.8
2022-11-12T23:20:30.502Z,93.3
2022-11-12T23:25:34.885Z,93.6
2022-11-12T23:30:38.477Z,93.5
2022-11-12T23:35:43.129Z,93.4
2022-11-12T23:40:47.521Z,93.2
2022-11-12T23:45:51.073Z,92.8
2022-11-12T23:50:55.739Z,92.8
2022-11-12T23:56:00.215Z,92.7
